Rogers, AR

12:00 AM CDT on September 17, 2014 (GMT -0500)
Rogers Municipal-Carter | Change Station
CLOSE
Current Station
Airport
Location: Rogers,
Elevation: 1358 ft
Nearby Weather Stations

Elev 1358 ft 36.37 °N, 94.11 °W | Updated 3 minutes ago

Partly Cloudy
Partly Cloudy
66 °F
Feels Like 66 °F
N
7
Wind Variable Wind from ESE

Today
High -- | Low -- °F
--% Chance of Precip.
Yesterday
High -- | Low -- °F
Precip. -- in
7:00 AM 7:20 PM
Last Quarter, 39% visible
Pressure 30.04 in
Visibility 6.0 miles
Clouds Few 400 ft
Dew Point 64 °F
Humidity 93%
Rainfall 0.00 in
Snow Depth Not available.
UV 0 out of 12
Pollen 9.90 out of 12
Air Quality Not available.
Flu Activity Not available.
METAR KROG 170457Z AUTO 12006KT 6SM BR FEW004 19/18 A3007 RMK AO2 SLP172 T01890178 402390189

More Conditions Fewer Conditions

Pressure 30.04 in
Visibility 6.0 miles
Clouds Few 400 ft
Dew Point 64 °F
Humidity 93%
Rainfall 0.00 in
Snow Depth Not available.
UV 0 out of 12
Pollen 9.90 out of 12
Air Quality Not available.
Flu Activity Not available.
METAR KROG 170457Z AUTO 12006KT 6SM BR FEW004 19/18 A3007 RMK AO2 SLP172 T01890178 402390189

More Conditions Fewer Conditions

10-Day Weather Forecast

Almanac

Astronomy

Sep. 17, 2014 Rise Set
Actual Time 7:00 AM CDT 7:20 PM CDT
Civil Twilight 6:34 AM CDT 7:46 PM CDT
Nautical Twilight 6:04 AM CDT 8:16 PM CDT
Astronomical Twilight 5:33 AM CDT 8:47 PM CDT
Moon 1:08 AM CDT 3:24 PM CDT
Length of Visible Light 13h 11m
Length of Day
12h 20m
Tomorrow will be 2m 18s shorter.
Last Quarter, 39% of the Moon is Illuminated
Today
Last Quarter
Sep 24
New
Oct 1
First Quarter
Oct 8
Full
Oct 15
Last Quarter

Today's Extremes

State Highs State Lows

Community

WunderPhotos

Upload Photos

1,753,967 photos uploaded!

Nearby

Snow Depth

Station Depth Elevation
No new snow has been reported.

Earthquake Activity

City Distance Mag. Time & Date
No recent earthquake activity has been reported nearby.
Minimum magnitude displayed is 2.5.

Coastal Water Temperatures

Place Temperature
No Stations Reporting

Nearby Weather Stations